createdAt,value
2023-02-01T00:04:59.584Z,85.12
2023-02-01T00:10:05.342Z,85.36
2023-02-01T00:15:12.443Z,85.45
2023-02-01T00:20:14.335Z,85.31
2023-02-01T00:25:16.307Z,85.34
2023-02-01T00:30:19.178Z,85.29
2023-02-01T00:35:21.419Z,85.13
2023-02-01T00:40:23.789Z,84.92
2023-02-01T00:45:26.289Z,84.70
2023-02-01T00:50:28.252Z,84.39
2023-02-01T00:55:30.196Z,83.69
2023-02-01T01:00:32.512Z,82.78
2023-02-01T01:05:37.517Z,83.41
2023-02-01T01:10:40.130Z,85.06
2023-02-01T01:15:43.066Z,86.18
2023-02-01T01:20:45.492Z,86.69
2023-02-01T01:25:47.507Z,87.37
2023-02-01T01:30:50.314Z,87.92
2023-02-01T01:35:52.572Z,88.15
2023-02-01T01:40:55.012Z,88.50
2023-02-01T01:45:58.693Z,88.92
2023-02-01T01:51:07.222Z,89.17
2023-02-01T01:56:09.852Z,89.14
2023-02-01T02:01:14.606Z,89.26
2023-02-01T02:06:29.343Z,89.37
2023-02-01T02:11:31.867Z,89.18
2023-02-01T02:16:56.768Z,88.82
2023-02-01T02:22:28.026Z,88.76
2023-02-01T02:27:33.668Z,88.64
2023-02-01T02:33:12.049Z,88.48
2023-02-01T02:38:22.877Z,88.58
2023-02-01T02:43:59.342Z,88.60
2023-02-01T02:49:34.656Z,88.70
2023-02-01T02:54:48.029Z,88.72
2023-02-01T03:00:10.807Z,88.89
2023-02-01T03:05:13.844Z,88.94
2023-02-01T03:10:38.358Z,88.93
2023-02-01T03:15:48.753Z,88.90
2023-02-01T03:20:55.679Z,88.87
2023-02-01T03:26:01.093Z,88.84
2023-02-01T03:31:04.860Z,88.82
2023-02-01T03:36:23.852Z,88.91
2023-02-01T03:41:36.657Z,88.95
2023-02-01T03:47:24.165Z,89.04
2023-02-01T03:52:37.403Z,89.09
2023-02-01T03:57:47.089Z,89.06
2023-02-01T04:02:49.874Z,89.01
2023-02-01T04:07:52.472Z,88.43
2023-02-01T04:12:54.506Z,88.10
2023-02-01T04:17:56.866Z,88.24
2023-02-01T04:22:59.223Z,88.44
2023-02-01T04:28:02.142Z,88.48
2023-02-01T04:33:07.418Z,88.41
2023-02-01T04:38:09.709Z,88.26
2023-02-01T04:43:11.563Z,88.13
2023-02-01T04:48:14.080Z,88.02
2023-02-01T04:53:16.738Z,87.86
2023-02-01T04:58:18.782Z,88.06
2023-02-01T05:03:20.704Z,88.12
2023-02-01T05:08:26.457Z,88.16
2023-02-01T05:13:47.255Z,88.17
2023-02-01T05:18:49.539Z,88.16
2023-02-01T05:24:10.413Z,88.12
2023-02-01T05:29:12.795Z,88.10
2023-02-01T05:34:16.645Z,87.94
2023-02-01T05:39:18.966Z,87.75
2023-02-01T05:44:21.134Z,87.60
2023-02-01T05:49:22.939Z,87.56
2023-02-01T05:54:24.970Z,87.43
2023-02-01T05:59:27.215Z,87.19
2023-02-01T06:04:29.070Z,87.12
2023-02-01T06:09:31.606Z,86.99
2023-02-01T06:14:33.477Z,86.81
2023-02-01T06:19:35.554Z,86.81
2023-02-01T06:24:37.588Z,86.86
2023-02-01T06:29:40.337Z,86.76
2023-02-01T06:34:43.049Z,86.69
2023-02-01T06:39:45.095Z,86.73
2023-02-01T06:44:48.118Z,86.52
2023-02-01T06:49:50.018Z,86.71
2023-02-01T06:54:51.960Z,86.88
2023-02-01T06:59:54.159Z,86.60
2023-02-01T07:04:56.565Z,86.07
2023-02-01T07:09:58.471Z,85.86
2023-02-01T07:15:02.771Z,85.84
2023-02-01T07:20:05.275Z,85.59
2023-02-01T07:25:07.968Z,85.28
2023-02-01T07:30:11.044Z,85.23
2023-02-01T07:35:15.154Z,85.02
2023-02-01T07:40:17.440Z,84.87
2023-02-01T07:45:21.873Z,85.26
2023-02-01T07:50:24.294Z,84.82
2023-02-01T07:55:26.477Z,84.97
2023-02-01T08:00:47.145Z,84.79
2023-02-01T08:05:49.357Z,84.60
2023-02-01T08:10:51.939Z,84.37
2023-02-01T08:15:53.890Z,83.97
2023-02-01T08:20:56.329Z,83.49
2023-02-01T08:26:31.903Z,83.34
2023-02-01T08:31:34.157Z,83.82
2023-02-01T08:36:36.834Z,82.64
2023-02-01T08:41:39.408Z,82.12
2023-02-01T08:46:42.224Z,81.96
2023-02-01T08:51:45.390Z,81.96
2023-02-01T08:56:47.828Z,81.74
2023-02-01T09:01:50.005Z,82.01
2023-02-01T09:13:58.460Z,81.35
2023-02-01T09:19:25.835Z,81.46
2023-02-01T09:24:22.742Z,80.86
2023-02-01T09:29:24.721Z,80.72
2023-02-01T09:34:27.235Z,80.58
2023-02-01T09:39:31.159Z,80.32
2023-02-01T09:45:09.487Z,79.62
2023-02-01T09:50:22.264Z,79.44
2023-02-01T09:55:43.790Z,79.07
2023-02-01T10:00:53.594Z,78.63
2023-02-01T10:06:31.106Z,78.80
2023-02-01T10:12:04.420Z,79.15
2023-02-01T10:17:16.008Z,79.04
2023-02-01T10:23:10.273Z,78.30
2023-02-01T10:28:05.832Z,78.64
2023-02-01T10:33:24.735Z,78.66
2023-02-01T10:38:32.986Z,79.05
2023-02-01T10:43:41.435Z,79.00
2023-02-01T10:48:43.860Z,79.04
2023-02-01T10:53:53.505Z,79.16
2023-02-01T10:59:07.181Z,79.36
2023-02-01T11:04:16.081Z,79.63
2023-02-01T11:09:26.721Z,79.11
2023-02-01T11:14:37.265Z,78.61
2023-02-01T11:19:39.660Z,78.73
2023-02-01T11:24:45.659Z,78.35
2023-02-01T11:29:52.363Z,78.35
2023-02-01T11:35:03.019Z,78.49
2023-02-01T11:40:28.229Z,78.68
2023-02-01T11:45:34.840Z,77.83
2023-02-01T11:50:43.331Z,78.77
2023-02-01T11:56:01.677Z,78.50
2023-02-01T12:01:32.163Z,78.32
2023-02-01T12:07:26.628Z,78.71
2023-02-01T12:12:46.056Z,79.17
2023-02-01T12:17:56.913Z,80.01
2023-02-01T12:23:17.464Z,79.50
2023-02-01T12:28:50.056Z,79.71
2023-02-01T12:34:20.529Z,78.77
2023-02-01T12:39:27.846Z,78.57
2023-02-01T12:44:38.326Z,79.03
2023-02-01T12:49:51.970Z,79.03
2023-02-01T12:55:04.197Z,78.68
2023-02-01T13:00:33.911Z,79.07
2023-02-01T13:05:53.954Z,79.26
2023-02-01T13:11:05.818Z,79.22
2023-02-01T13:16:36.816Z,79.59
2023-02-01T13:21:44.841Z,79.14
2023-02-01T13:26:48.342Z,78.43
2023-02-01T13:32:17.304Z,78.66
2023-02-01T13:38:37.368Z,79.77
2023-02-01T13:43:50.531Z,81.14
2023-02-01T13:49:03.342Z,82.19
2023-02-01T13:54:07.086Z,83.04
2023-02-01T14:00:00.944Z,83.57
2023-02-01T14:05:44.021Z,84.46
2023-02-01T14:11:02.449Z,83.87
2023-02-01T14:16:17.141Z,83.76
2023-02-01T14:21:47.077Z,84.60
2023-02-01T14:27:00.954Z,84.24
2023-02-01T14:32:26.808Z,84.47
2023-02-01T14:37:37.581Z,84.97
2023-02-01T14:42:48.532Z,85.14
2023-02-01T14:48:14.649Z,85.61
2023-02-01T14:53:34.644Z,85.63
2023-02-01T14:59:11.082Z,85.98
2023-02-01T15:04:22.839Z,86.49
2023-02-01T15:09:38.400Z,86.06
2023-02-01T15:14:53.318Z,86.33
2023-02-01T15:19:58.373Z,86.36
2023-02-01T15:25:01.723Z,85.96
2023-02-01T15:30:20.044Z,85.91
2023-02-01T15:36:29.849Z,85.84
2023-02-01T15:41:44.648Z,86.74
2023-02-01T15:46:51.905Z,87.17
2023-02-01T15:51:57.953Z,87.55
2023-02-01T15:57:04.355Z,87.05
2023-02-01T16:02:32.038Z,86.85
2023-02-01T16:08:04.572Z,86.91
2023-02-01T16:13:08.382Z,86.86
2023-02-01T16:18:12.522Z,86.71
2023-02-01T16:23:16.907Z,86.57
2023-02-01T16:28:20.020Z,86.38
2023-02-01T16:33:31.744Z,86.03
2023-02-01T16:38:34.137Z,85.90
2023-02-01T16:43:39.594Z,85.58
2023-02-01T16:48:52.081Z,85.73
2023-02-01T16:53:55.594Z,86.21
2023-02-01T16:58:59.073Z,86.66
2023-02-01T17:04:01.560Z,86.91
2023-02-01T17:09:05.328Z,86.80
2023-02-01T17:14:22.663Z,85.97
2023-02-01T17:19:26.122Z,86.22
2023-02-01T17:24:46.563Z,85.88
2023-02-01T17:29:55.532Z,85.93
2023-02-01T17:35:01.296Z,86.00
2023-02-01T17:40:04.150Z,86.11
2023-02-01T17:45:40.738Z,85.88
2023-02-01T17:50:47.372Z,85.68
2023-02-01T17:55:51.180Z,85.60
2023-02-01T18:00:55.561Z,85.34
2023-02-01T18:06:01.936Z,85.19
2023-02-01T18:11:10.389Z,85.18
2023-02-01T18:16:33.791Z,85.10
2023-02-01T18:21:43.131Z,84.98
2023-02-01T18:26:49.090Z,84.79
2023-02-01T18:31:51.888Z,84.75
2023-02-01T18:36:56.661Z,84.66
2023-02-01T18:41:59.910Z,84.85
2023-02-01T18:47:05.415Z,84.75
2023-02-01T18:52:16.467Z,84.64
2023-02-01T18:57:19.818Z,84.53
2023-02-01T19:02:22.298Z,84.47
2023-02-01T19:07:24.348Z,84.26
2023-02-01T19:12:27.707Z,84.57
2023-02-01T19:17:30.552Z,84.34
2023-02-01T19:22:34.252Z,84.27
2023-02-01T19:27:36.747Z,84.21
2023-02-01T19:32:39.567Z,84.17
2023-02-01T19:37:43.879Z,84.19
2023-02-01T19:42:47.127Z,84.22
2023-02-01T19:47:49.861Z,84.41
2023-02-01T19:52:53.055Z,84.77
2023-02-01T19:57:55.606Z,84.56
2023-02-01T20:02:56.966Z,84.47
2023-02-01T20:07:59.059Z,84.57
2023-02-01T20:13:01.867Z,84.64
2023-02-01T20:18:04.831Z,84.65
2023-02-01T20:23:08.287Z,84.65
2023-02-01T20:28:12.773Z,84.50
2023-02-01T20:33:16.582Z,84.65
2023-02-01T20:38:18.773Z,84.72
2023-02-01T20:43:21.489Z,84.65
2023-02-01T20:48:24.472Z,84.79
2023-02-01T20:53:27.606Z,85.27
2023-02-01T20:58:30.880Z,85.64
2023-02-01T21:03:35.374Z,85.88
2023-02-01T21:08:41.689Z,86.02
2023-02-01T21:13:50.810Z,86.09
2023-02-01T21:18:56.490Z,86.10
2023-02-01T21:24:00.045Z,86.14
2023-02-01T21:29:17.507Z,86.39
2023-02-01T21:34:20.574Z,86.54
2023-02-01T21:39:23.310Z,86.79
2023-02-01T21:44:30.867Z,86.96
2023-02-01T21:49:36.097Z,86.95
2023-02-01T21:54:45.145Z,86.86
2023-02-01T21:59:47.694Z,86.73
2023-02-01T22:04:50.710Z,86.55
2023-02-01T22:09:57.443Z,86.36
2023-02-01T22:15:00.445Z,86.23
2023-02-01T22:20:05.249Z,86.29
2023-02-01T22:25:09.602Z,86.34
2023-02-01T22:30:12.683Z,86.05
2023-02-01T22:35:15.371Z,85.81
2023-02-01T22:40:18.363Z,85.68
2023-02-01T22:45:20.940Z,85.45
2023-02-01T22:50:23.055Z,85.18
2023-02-01T22:55:26.256Z,85.67
2023-02-01T23:00:30.127Z,85.84
2023-02-01T23:05:32.104Z,86.11
2023-02-01T23:10:39.744Z,86.61
2023-02-01T23:15:42.014Z,86.46
2023-02-01T23:20:44.467Z,86.62
2023-02-01T23:25:51.683Z,86.64
2023-02-01T23:30:55.633Z,86.76
2023-02-01T23:36:00.881Z,86.93
2023-02-01T23:41:05.651Z,87.12
2023-02-01T23:46:07.988Z,87.38
2023-02-01T23:51:14.201Z,87.49
2023-02-01T23:56:25.948Z,88.02
